createdAt,value
2018-03-02T00:02:21.372Z,73.64
2018-03-02T00:04:50.698Z,73.40
2018-03-02T00:07:19.964Z,72.35
2018-03-02T00:09:49.335Z,73.44
2018-03-02T00:12:18.773Z,73.53
2018-03-02T00:14:48.238Z,73.74
2018-03-02T00:17:17.269Z,74.25
2018-03-02T00:19:46.625Z,74.10
2018-03-02T00:22:16.108Z,72.76
2018-03-02T00:24:45.541Z,72.90
2018-03-02T00:27:14.714Z,73.22
2018-03-02T00:29:44.291Z,72.95
2018-03-02T00:32:13.474Z,73.60
2018-03-02T00:34:42.927Z,73.59
2018-03-02T00:37:12.758Z,73.80
2018-03-02T00:39:42.305Z,73.12
2018-03-02T00:42:11.473Z,73.32
2018-03-02T00:44:41.219Z,73.10
2018-03-02T00:47:10.310Z,73.61
2018-03-02T00:49:39.813Z,74.46
2018-03-02T00:52:09.245Z,74.82
2018-03-02T00:54:38.471Z,76.76
2018-03-02T00:57:08.062Z,77.15
2018-03-02T00:59:37.431Z,76.89
2018-03-02T01:02:07.033Z,78.22
2018-03-02T01:04:36.329Z,79.10
2018-03-02T01:07:05.533Z,79.34
2018-03-02T01:09:35.218Z,79.69
2018-03-02T01:12:04.729Z,79.54
2018-03-02T01:14:34.051Z,79.60
2018-03-02T01:17:03.262Z,79.40
2018-03-02T01:19:32.537Z,78.93
2018-03-02T01:22:02.159Z,79.49
2018-03-02T01:24:32.174Z,79.99
2018-03-02T01:27:01.706Z,78.27
2018-03-02T01:29:30.889Z,78.01
2018-03-02T01:32:00.178Z,76.81
2018-03-02T01:34:29.595Z,75.09
2018-03-02T01:36:59.438Z,74.89
2018-03-02T01:39:28.618Z,75.01
2018-03-02T01:41:58.085Z,74.96
2018-03-02T01:44:27.570Z,76.68
2018-03-02T01:46:57.053Z,77.65
2018-03-02T01:49:26.806Z,77.96
2018-03-02T01:51:55.902Z,78.03
2018-03-02T01:54:25.081Z,77.95
2018-03-02T01:56:54.321Z,77.67
2018-03-02T01:59:23.708Z,77.37
2018-03-02T02:01:52.801Z,77.88
2018-03-02T02:04:22.215Z,78.73
2018-03-02T02:06:51.542Z,78.35
2018-03-02T02:09:20.706Z,78.84
2018-03-02T02:11:50.113Z,78.64
2018-03-02T02:14:19.511Z,79.18
2018-03-02T02:16:48.718Z,79.81
2018-03-02T02:19:17.797Z,79.88
2018-03-02T02:21:47.310Z,80.07
2018-03-02T02:24:16.453Z,80.13
2018-03-02T02:26:45.697Z,80.61
2018-03-02T02:29:14.997Z,80.21
2018-03-02T02:31:44.619Z,80.73
2018-03-02T02:34:13.979Z,79.93
2018-03-02T02:36:43.314Z,80.49
2018-03-02T02:39:12.994Z,80.36
2018-03-02T02:41:42.221Z,80.28
2018-03-02T02:44:11.474Z,79.46
2018-03-02T02:46:40.898Z,79.30
2018-03-02T02:49:10.057Z,79.62
2018-03-02T02:51:39.644Z,79.32
2018-03-02T02:54:08.907Z,79.47
2018-03-02T02:56:38.117Z,79.55
2018-03-02T02:59:07.525Z,79.68
2018-03-02T03:01:36.720Z,79.92
2018-03-02T03:04:06.141Z,79.15
2018-03-02T03:06:35.425Z,78.62
2018-03-02T03:09:04.893Z,79.98
2018-03-02T03:11:34.139Z,80.20
2018-03-02T03:14:03.769Z,80.67
2018-03-02T03:16:33.177Z,81.43
2018-03-02T03:19:02.397Z,81.62
2018-03-02T03:21:31.941Z,82.44
2018-03-02T03:24:01.244Z,82.42
2018-03-02T03:26:31.059Z,83.36
2018-03-02T03:29:00.455Z,83.80
2018-03-02T03:31:29.962Z,82.55
2018-03-02T03:33:59.509Z,83.66
2018-03-02T03:36:28.787Z,84.51
2018-03-02T03:38:58.169Z,84.84
2018-03-02T03:41:27.483Z,86.04
2018-03-02T03:43:57.284Z,85.75
2018-03-02T03:46:26.449Z,86.09
2018-03-02T03:48:55.777Z,86.26
2018-03-02T03:51:25.089Z,86.81
2018-03-02T03:53:54.382Z,86.71
2018-03-02T03:56:23.799Z,87.52
2018-03-02T03:58:53.439Z,87.08
2018-03-02T04:01:22.893Z,87.72
2018-03-02T04:03:52.305Z,88.39
2018-03-02T04:06:21.534Z,88.55
2018-03-02T04:08:50.904Z,88.34
2018-03-02T04:11:20.174Z,88.36
2018-03-02T04:13:49.411Z,88.60
2018-03-02T04:16:18.611Z,88.21
2018-03-02T04:18:47.922Z,88.24
2018-03-02T04:21:18.625Z,88.39
2018-03-02T04:23:48.073Z,88.58
2018-03-02T04:26:17.532Z,88.03
2018-03-02T04:28:46.947Z,88.16
2018-03-02T04:31:16.434Z,88.57
2018-03-02T04:33:45.611Z,88.58
2018-03-02T04:36:15.041Z,88.47
2018-03-02T04:38:44.649Z,88.57
2018-03-02T04:41:13.807Z,88.63
2018-03-02T04:43:43.046Z,88.80
2018-03-02T04:46:12.185Z,89.20
2018-03-02T04:48:41.455Z,89.14
2018-03-02T04:51:10.465Z,89.22
2018-03-02T04:53:39.837Z,88.96
2018-03-02T04:56:09.292Z,89.51
2018-03-02T04:58:38.710Z,89.36
2018-03-02T05:01:07.945Z,89.48
2018-03-02T05:03:37.469Z,89.24
2018-03-02T05:06:07.053Z,89.07
2018-03-02T05:08:36.457Z,89.30
2018-03-02T05:11:05.801Z,89.36
2018-03-02T05:13:35.121Z,89.59
2018-03-02T05:16:04.249Z,89.55
2018-03-02T05:18:33.441Z,89.32
2018-03-02T05:21:02.977Z,89.16
2018-03-02T05:23:32.257Z,89.79
2018-03-02T05:26:01.662Z,89.65
2018-03-02T05:28:30.864Z,90.64
2018-03-02T05:31:00.275Z,89.77
2018-03-02T05:33:29.577Z,90.34
2018-03-02T05:35:58.774Z,89.31
2018-03-02T05:38:28.005Z,89.74
2018-03-02T05:40:57.277Z,89.94
2018-03-02T05:43:26.731Z,90.06
2018-03-02T05:45:56.158Z,89.96
2018-03-02T05:48:25.882Z,89.56
2018-03-02T05:50:55.017Z,89.61
2018-03-02T05:53:24.381Z,88.89
2018-03-02T05:55:53.991Z,88.98
2018-03-02T05:58:23.161Z,89.22
2018-03-02T06:00:52.309Z,88.78
2018-03-02T06:03:21.570Z,88.54
2018-03-02T06:05:50.881Z,88.28
2018-03-02T06:08:20.517Z,88.21
2018-03-02T06:10:49.797Z,88.58
2018-03-02T06:13:19.159Z,87.98
2018-03-02T06:15:48.322Z,87.74
2018-03-02T06:18:17.689Z,88.12
2018-03-02T06:20:47.044Z,87.76
2018-03-02T06:23:16.325Z,88.11
2018-03-02T06:25:45.381Z,87.01
2018-03-02T06:28:14.353Z,87.48
2018-03-02T06:30:43.498Z,87.08
2018-03-02T06:33:12.850Z,87.41
2018-03-02T06:35:42.029Z,87.72
2018-03-02T06:38:11.430Z,87.47
2018-03-02T06:40:40.611Z,87.22
2018-03-02T06:43:09.874Z,87.40
2018-03-02T06:45:39.274Z,88.19
2018-03-02T06:48:08.688Z,89.90
2018-03-02T06:50:37.870Z,87.47
2018-03-02T06:53:06.853Z,84.90
2018-03-02T06:55:36.016Z,84.02
2018-03-02T06:58:05.814Z,84.06
2018-03-02T07:00:35.163Z,85.79
2018-03-02T07:03:04.241Z,86.63
2018-03-02T07:05:33.582Z,86.82
2018-03-02T07:08:02.846Z,87.58
2018-03-02T07:10:31.923Z,86.59
2018-03-02T07:13:01.255Z,86.24
2018-03-02T07:15:30.669Z,85.81
2018-03-02T07:17:59.974Z,86.89
2018-03-02T07:20:29.213Z,85.46
2018-03-02T07:22:58.301Z,85.44
2018-03-02T07:25:27.283Z,84.90
2018-03-02T07:27:56.493Z,85.10
2018-03-02T07:30:25.875Z,85.66
2018-03-02T07:32:55.007Z,85.38
2018-03-02T07:35:24.166Z,85.28
2018-03-02T07:37:53.512Z,85.86
2018-03-02T07:40:22.774Z,84.44
2018-03-02T07:42:51.894Z,83.69
2018-03-02T07:45:21.155Z,83.76
2018-03-02T07:47:50.478Z,83.35
2018-03-02T07:50:19.741Z,84.55
2018-03-02T07:52:48.839Z,85.22
2018-03-02T07:55:18.426Z,82.99
2018-03-02T07:57:47.669Z,84.58
2018-03-02T08:00:16.972Z,83.17
2018-03-02T08:02:46.462Z,84.29
2018-03-02T08:05:15.986Z,84.74
2018-03-02T08:07:45.499Z,83.34
2018-03-02T08:10:14.855Z,83.50
2018-03-02T08:12:44.197Z,83.47
2018-03-02T08:15:13.290Z,80.26
2018-03-02T08:17:42.560Z,81.92
2018-03-02T08:20:12.291Z,82.78
2018-03-02T08:22:41.402Z,82.06
2018-03-02T08:25:10.434Z,81.77
2018-03-02T08:27:39.669Z,81.44
2018-03-02T08:30:09.138Z,81.46
2018-03-02T08:32:38.441Z,81.84
2018-03-02T08:35:07.481Z,79.59
2018-03-02T08:37:36.414Z,81.03
2018-03-02T08:40:05.673Z,80.87
2018-03-02T08:42:35.042Z,79.03
2018-03-02T08:45:04.334Z,78.66
2018-03-02T08:47:33.477Z,79.12
2018-03-02T08:50:02.721Z,79.80
2018-03-02T08:52:32.048Z,75.21
2018-03-02T08:55:01.371Z,77.86
2018-03-02T08:57:30.477Z,74.87
2018-03-02T08:59:59.893Z,76.75
2018-03-02T09:02:28.867Z,75.41
2018-03-02T09:04:57.954Z,74.74
2018-03-02T09:07:27.200Z,74.62
2018-03-02T09:09:56.337Z,74.71
2018-03-02T09:12:25.581Z,76.62
2018-03-02T09:14:55.082Z,75.85
2018-03-02T09:17:24.317Z,76.45
2018-03-02T09:19:53.705Z,76.78
2018-03-02T09:22:23.065Z,78.54
2018-03-02T09:24:52.345Z,79.21
2018-03-02T09:27:21.823Z,79.15
2018-03-02T09:29:50.985Z,79.38
2018-03-02T09:32:20.001Z,78.78
2018-03-02T09:34:49.365Z,79.49
2018-03-02T09:37:18.670Z,78.79
2018-03-02T09:39:47.894Z,79.10
2018-03-02T09:42:17.167Z,80.46
2018-03-02T09:44:46.383Z,79.69
2018-03-02T09:47:15.581Z,79.43
2018-03-02T09:49:44.707Z,79.78
2018-03-02T09:52:14.098Z,79.14
2018-03-02T09:54:43.605Z,79.58
2018-03-02T09:57:12.846Z,80.26
2018-03-02T09:59:42.293Z,79.87
2018-03-02T10:02:11.554Z,79.80
2018-03-02T10:04:40.819Z,78.69
2018-03-02T10:07:10.217Z,80.49
2018-03-02T10:09:39.143Z,80.87
2018-03-02T10:12:08.810Z,80.92
2018-03-02T10:14:38.009Z,80.30
2018-03-02T10:17:07.165Z,80.89
2018-03-02T10:19:36.478Z,81.52
2018-03-02T10:22:05.642Z,83.49
2018-03-02T10:24:35.045Z,81.13
2018-03-02T10:27:04.513Z,81.05
2018-03-02T10:29:33.765Z,80.23
2018-03-02T10:32:03.138Z,79.53
2018-03-02T10:34:32.223Z,78.48
2018-03-02T10:37:01.767Z,79.12
2018-03-02T10:39:30.994Z,80.40
2018-03-02T10:42:00.267Z,80.38
2018-03-02T10:44:29.915Z,79.52
2018-03-02T10:46:59.262Z,79.16
2018-03-02T10:49:28.679Z,80.01
2018-03-02T10:51:58.170Z,79.10
2018-03-02T10:54:27.793Z,79.33
2018-03-02T10:56:57.233Z,78.46
2018-03-02T10:59:26.844Z,78.71
2018-03-02T11:01:56.037Z,79.50
2018-03-02T11:04:30.974Z,80.13
2018-03-02T11:07:00.331Z,80.73
2018-03-02T11:09:29.668Z,80.78
2018-03-02T11:11:58.868Z,81.79
2018-03-02T11:14:28.030Z,81.05
2018-03-02T11:16:57.436Z,80.77
2018-03-02T11:19:26.680Z,81.22
2018-03-02T11:21:56.171Z,81.38
2018-03-02T11:24:25.260Z,81.20
2018-03-02T11:26:54.622Z,82.30
2018-03-02T11:29:23.971Z,81.79
2018-03-02T11:31:53.417Z,81.92
2018-03-02T11:34:22.398Z,82.10
2018-03-02T11:36:51.717Z,82.21
2018-03-02T11:39:20.951Z,81.98
2018-03-02T11:41:49.941Z,83.23
2018-03-02T11:44:19.113Z,84.18
2018-03-02T11:46:48.369Z,83.10
2018-03-02T11:49:17.527Z,83.52
2018-03-02T11:51:46.953Z,83.23
2018-03-02T11:54:16.175Z,84.43
2018-03-02T11:56:45.269Z,85.58
2018-03-02T11:59:14.442Z,84.04
2018-03-02T12:01:43.837Z,84.53
2018-03-02T12:04:13.343Z,85.36
2018-03-02T12:06:42.713Z,85.73
2018-03-02T12:09:12.028Z,84.69
2018-03-02T12:11:41.371Z,83.38
2018-03-02T12:14:10.721Z,83.34
2018-03-02T12:16:40.017Z,84.43
2018-03-02T12:19:09.483Z,84.61
2018-03-02T12:21:38.993Z,84.83
2018-03-02T12:24:08.201Z,83.15
2018-03-02T12:26:37.931Z,84.34
2018-03-02T12:29:07.285Z,84.80
2018-03-02T12:31:36.701Z,84.72
2018-03-02T12:34:06.145Z,85.31
2018-03-02T12:36:35.359Z,84.62
2018-03-02T12:39:05.470Z,84.99
2018-03-02T12:41:34.702Z,85.78
2018-03-02T12:44:04.234Z,85.84
2018-03-02T12:46:33.408Z,84.37
2018-03-02T12:49:02.773Z,84.91
2018-03-02T12:51:32.039Z,85.44
2018-03-02T12:54:01.528Z,86.29
2018-03-02T12:56:30.709Z,86.79
2018-03-02T12:59:00.132Z,87.39
2018-03-02T13:01:29.685Z,87.14
2018-03-02T13:03:58.917Z,87.66
2018-03-02T13:06:28.185Z,85.74
2018-03-02T13:08:57.373Z,86.73
2018-03-02T13:11:26.746Z,87.38
2018-03-02T13:13:55.994Z,88.44
2018-03-02T13:16:25.220Z,88.43
2018-03-02T13:18:54.275Z,88.97
2018-03-02T13:21:23.911Z,90.01
2018-03-02T13:23:53.099Z,89.94
2018-03-02T13:26:33.690Z,90.08
2018-03-02T13:29:02.595Z,90.28
2018-03-02T13:31:31.948Z,90.79
2018-03-02T13:34:12.351Z,90.28
2018-03-02T13:36:41.105Z,90.44
2018-03-02T13:39:10.390Z,90.54
2018-03-02T13:41:51.086Z,89.68
2018-03-02T13:44:20.049Z,89.73
2018-03-02T13:46:49.629Z,90.16
2018-03-02T13:49:30.205Z,89.64
2018-03-02T13:51:59.368Z,89.85
2018-03-02T13:54:28.580Z,90.27
2018-03-02T13:57:09.126Z,90.50
2018-03-02T13:59:38.179Z,89.84
2018-03-02T14:02:07.379Z,89.62
2018-03-02T14:04:45.366Z,90.04
2018-03-02T14:07:14.700Z,90.12
2018-03-02T14:09:43.770Z,90.00
2018-03-02T14:12:13.088Z,90.03
2018-03-02T14:14:42.265Z,90.29
2018-03-02T14:17:11.655Z,90.43
2018-03-02T14:19:41.132Z,90.18
2018-03-02T14:22:10.434Z,90.02
2018-03-02T14:24:39.921Z,90.46
2018-03-02T14:27:08.997Z,90.42
2018-03-02T14:29:38.345Z,90.48
2018-03-02T14:32:07.965Z,90.18
2018-03-02T14:34:37.406Z,90.15
2018-03-02T14:37:06.725Z,89.78
2018-03-02T14:39:35.990Z,90.13
2018-03-02T14:42:05.094Z,90.16
2018-03-02T14:44:34.215Z,90.70
2018-03-02T14:47:03.869Z,90.77
2018-03-02T14:49:33.296Z,90.48
2018-03-02T14:52:02.743Z,89.66
2018-03-02T14:54:31.894Z,88.71
2018-03-02T14:57:01.281Z,90.01
2018-03-02T14:59:31.066Z,87.73
2018-03-02T15:02:00.274Z,88.60
2018-03-02T15:04:29.838Z,88.51
2018-03-02T15:06:59.362Z,88.50
2018-03-02T15:09:28.845Z,89.18
2018-03-02T15:11:58.111Z,90.05
2018-03-02T15:14:27.426Z,90.88
2018-03-02T15:16:56.879Z,90.81
2018-03-02T15:19:26.130Z,91.03
2018-03-02T15:21:55.502Z,91.25
2018-03-02T15:24:24.851Z,91.88
2018-03-02T15:26:54.247Z,91.89
2018-03-02T15:29:23.493Z,91.75
2018-03-02T15:31:52.847Z,92.14
2018-03-02T15:34:22.418Z,91.32
2018-03-02T15:36:51.779Z,89.34
2018-03-02T15:39:21.408Z,91.37
2018-03-02T15:41:50.811Z,92.04
2018-03-02T15:44:20.365Z,92.39
2018-03-02T15:46:50.133Z,91.64
2018-03-02T15:49:19.513Z,90.87
2018-03-02T15:51:49.057Z,91.04
2018-03-02T15:54:18.362Z,88.14
2018-03-02T15:56:48.038Z,90.57
2018-03-02T15:59:17.502Z,91.17
2018-03-02T16:01:46.993Z,91.24
2018-03-02T16:04:16.276Z,90.20
2018-03-02T16:06:45.474Z,89.04
2018-03-02T16:09:14.495Z,90.65
2018-03-02T16:11:43.630Z,92.04
2018-03-02T16:14:12.907Z,91.15
2018-03-02T16:16:42.318Z,91.51
2018-03-02T16:19:11.518Z,92.35
2018-03-02T16:21:40.808Z,92.25
2018-03-02T16:24:10.244Z,91.85
2018-03-02T16:26:39.441Z,92.25
2018-03-02T16:29:08.867Z,92.85
2018-03-02T16:31:38.058Z,92.15
2018-03-02T16:34:07.329Z,91.76
2018-03-02T16:36:36.349Z,91.95
2018-03-02T16:39:05.668Z,92.44
2018-03-02T16:41:34.770Z,92.38
2018-03-02T16:44:04.006Z,89.89
2018-03-02T16:46:33.201Z,90.65
2018-03-02T16:49:02.533Z,91.27
2018-03-02T16:51:32.579Z,91.99
2018-03-02T16:54:02.146Z,91.81
2018-03-02T16:56:31.225Z,91.00
2018-03-02T16:59:00.361Z,91.86
2018-03-02T17:01:29.438Z,92.22
2018-03-02T17:03:58.576Z,92.07
2018-03-02T17:06:27.930Z,89.93
2018-03-02T17:08:56.906Z,88.24
2018-03-02T17:11:26.229Z,88.24
2018-03-02T17:13:55.375Z,88.62
2018-03-02T17:16:24.492Z,89.46
2018-03-02T17:18:53.543Z,91.93
2018-03-02T17:21:22.705Z,91.49
2018-03-02T17:23:52.263Z,87.72
2018-03-02T17:26:21.515Z,89.34
2018-03-02T17:28:50.703Z,90.65
2018-03-02T17:31:20.307Z,89.14
2018-03-02T17:33:49.552Z,91.57
2018-03-02T17:36:18.563Z,91.22
2018-03-02T17:38:47.862Z,91.01
2018-03-02T17:41:16.854Z,89.53
2018-03-02T17:43:46.105Z,87.46
2018-03-02T17:46:15.259Z,89.65
2018-03-02T17:48:44.317Z,89.93
2018-03-02T17:51:13.555Z,92.03
2018-03-02T17:53:42.518Z,91.92
2018-03-02T17:56:12.043Z,91.54
2018-03-02T17:58:42.239Z,91.69
2018-03-02T18:01:11.509Z,91.80
2018-03-02T18:03:40.747Z,91.82
2018-03-02T18:06:10.046Z,92.54
2018-03-02T18:08:39.075Z,92.23
2018-03-02T18:11:08.254Z,92.55
2018-03-02T18:13:37.249Z,91.36
2018-03-02T18:16:06.725Z,89.17
2018-03-02T18:18:36.111Z,90.01
2018-03-02T18:21:05.425Z,90.39
2018-03-02T18:23:34.453Z,91.04
2018-03-02T18:26:03.401Z,91.96
2018-03-02T18:28:32.469Z,91.90
2018-03-02T18:31:01.863Z,91.47
2018-03-02T18:33:31.025Z,89.20
2018-03-02T18:36:00.361Z,88.50
2018-03-02T18:38:29.526Z,87.85
2018-03-02T18:40:58.944Z,90.13
2018-03-02T18:43:28.197Z,91.10
2018-03-02T18:45:57.173Z,92.41
2018-03-02T18:48:26.427Z,93.66
2018-03-02T18:50:56.039Z,92.94
2018-03-02T18:53:25.322Z,92.86
2018-03-02T18:55:54.528Z,93.00
2018-03-02T18:58:23.718Z,93.04
2018-03-02T19:00:52.955Z,92.38
2018-03-02T19:03:22.043Z,92.74
2018-03-02T19:05:51.069Z,92.51
2018-03-02T19:08:20.256Z,91.74
2018-03-02T19:10:49.486Z,92.04
2018-03-02T19:13:18.628Z,92.35
2018-03-02T19:15:47.917Z,92.82
2018-03-02T19:18:16.933Z,91.88
2018-03-02T19:20:46.057Z,92.51
2018-03-02T19:23:15.482Z,93.41
2018-03-02T19:25:44.516Z,93.32
2018-03-02T19:28:13.645Z,93.76
2018-03-02T19:30:43.028Z,92.91
2018-03-02T19:33:12.398Z,92.78
2018-03-02T19:35:41.911Z,92.73
2018-03-02T19:38:11.398Z,93.26
2018-03-02T19:40:40.687Z,92.53
2018-03-02T19:43:10.185Z,92.30
2018-03-02T19:45:39.641Z,92.54
2018-03-02T19:48:08.991Z,92.89
2018-03-02T19:50:38.304Z,92.61
2018-03-02T19:53:08.185Z,90.80
2018-03-02T19:55:37.586Z,91.91
2018-03-02T19:58:06.759Z,91.71
2018-03-02T20:00:35.946Z,92.21
2018-03-02T20:03:05.439Z,92.17
2018-03-02T20:05:34.877Z,92.69
2018-03-02T20:08:04.093Z,92.57
2018-03-02T20:10:33.201Z,92.60
2018-03-02T20:13:02.509Z,92.66
2018-03-02T20:15:31.796Z,93.03
2018-03-02T20:18:01.354Z,93.12
2018-03-02T20:20:30.671Z,93.21
2018-03-02T20:23:00.367Z,92.59
2018-03-02T20:25:29.358Z,92.73
2018-03-02T20:27:58.706Z,93.24
2018-03-02T20:30:28.249Z,93.28
2018-03-02T20:32:57.350Z,93.40
2018-03-02T20:35:26.749Z,93.80
2018-03-02T20:37:55.875Z,93.73
2018-03-02T20:40:25.013Z,93.57
2018-03-02T20:42:54.293Z,94.59
2018-03-02T20:45:23.425Z,95.13
2018-03-02T20:47:52.838Z,94.59
2018-03-02T20:50:22.311Z,95.14
2018-03-02T20:52:51.587Z,95.12
2018-03-02T20:55:20.741Z,95.52
2018-03-02T20:57:49.930Z,95.08
2018-03-02T21:00:19.138Z,95.15
2018-03-02T21:02:48.559Z,94.94
2018-03-02T21:05:18.009Z,95.41
2018-03-02T21:07:47.041Z,95.61
2018-03-02T21:10:16.310Z,95.70
2018-03-02T21:12:45.812Z,95.88
2018-03-02T21:15:14.873Z,96.04
2018-03-02T21:17:44.629Z,96.02
2018-03-02T21:20:13.745Z,95.66
2018-03-02T21:22:43.617Z,95.93
2018-03-02T21:25:12.917Z,95.76
2018-03-02T21:27:42.017Z,95.77
2018-03-02T21:30:11.257Z,95.78
2018-03-02T21:32:40.568Z,95.84
2018-03-02T21:35:09.923Z,95.56
2018-03-02T21:37:39.297Z,95.57
2018-03-02T21:40:13.519Z,96.00
2018-03-02T21:42:42.893Z,95.95
2018-03-02T21:45:12.113Z,95.87
2018-03-02T21:47:41.327Z,95.72
2018-03-02T21:50:10.593Z,96.14
2018-03-02T21:52:39.811Z,95.26
2018-03-02T21:55:08.995Z,95.43
2018-03-02T21:57:38.240Z,95.61
2018-03-02T22:00:17.939Z,95.21
2018-03-02T22:02:52.485Z,95.39
2018-03-02T22:05:21.413Z,95.77
2018-03-02T22:07:50.531Z,95.56
2018-03-02T22:10:19.781Z,95.98
2018-03-02T22:12:49.062Z,95.50
2018-03-02T22:15:18.270Z,96.09
2018-03-02T22:17:47.417Z,96.01
2018-03-02T22:20:16.949Z,96.18
2018-03-02T22:22:46.169Z,95.95
2018-03-02T22:25:15.435Z,95.49
2018-03-02T22:27:44.648Z,95.52
2018-03-02T22:30:13.838Z,96.46
2018-03-02T22:32:43.046Z,95.96
2018-03-02T22:35:12.276Z,95.55
2018-03-02T22:37:41.541Z,94.51
2018-03-02T22:40:10.917Z,93.64
2018-03-02T22:42:40.021Z,94.66
2018-03-02T22:45:09.437Z,95.71
2018-03-02T22:47:38.573Z,95.33
2018-03-02T22:50:08.072Z,95.66
2018-03-02T22:52:37.425Z,95.78
2018-03-02T22:55:07.035Z,95.82
2018-03-02T22:57:36.367Z,95.81
2018-03-02T23:00:05.786Z,95.84
2018-03-02T23:02:35.073Z,95.81
2018-03-02T23:05:04.347Z,95.95
2018-03-02T23:07:33.651Z,95.77
2018-03-02T23:10:02.769Z,95.79
2018-03-02T23:12:32.313Z,95.62
2018-03-02T23:15:01.692Z,94.80
2018-03-02T23:17:30.849Z,95.16
2018-03-02T23:20:00.018Z,95.71
2018-03-02T23:22:29.377Z,95.83
2018-03-02T23:24:58.637Z,95.74
2018-03-02T23:27:27.989Z,95.47
2018-03-02T23:29:57.073Z,95.84
2018-03-02T23:32:26.407Z,96.25
2018-03-02T23:34:55.625Z,96.21
2018-03-02T23:37:24.782Z,96.47
2018-03-02T23:39:53.965Z,96.26
2018-03-02T23:42:23.065Z,96.43
2018-03-02T23:44:52.385Z,96.26
2018-03-02T23:47:21.929Z,96.74
2018-03-02T23:49:51.052Z,96.82
2018-03-02T23:52:20.633Z,97.00
2018-03-02T23:54:50.037Z,96.52
2018-03-02T23:57:19.367Z,95.89
2018-03-02T23:59:48.745Z,96.70
